createdAt,value
2022-12-25T00:04:51.704Z,5.72
2022-12-25T00:09:55.915Z,5.84
2022-12-25T00:15:01.542Z,5.92
2022-12-25T00:20:08.222Z,6.16
2022-12-25T00:25:12.339Z,5.56
2022-12-25T00:30:18.342Z,5.46
2022-12-25T00:35:22.243Z,5.43
2022-12-25T00:40:26.393Z,5.68
2022-12-25T00:45:32.409Z,5.30
2022-12-25T00:50:38.855Z,5.08
2022-12-25T00:55:42.882Z,5.18
2022-12-25T01:00:49.618Z,5.06
2022-12-25T01:05:58.964Z,4.84
2022-12-25T01:11:04.096Z,4.70
2022-12-25T01:16:10.842Z,4.56
2022-12-25T01:21:17.411Z,4.25
2022-12-25T01:26:23.270Z,4.28
2022-12-25T01:31:28.920Z,4.28
2022-12-25T01:36:33.628Z,4.42
2022-12-25T01:41:37.587Z,4.20
2022-12-25T01:46:43.627Z,4.30
2022-12-25T01:51:53.411Z,4.24
2022-12-25T01:57:02.532Z,4.45
2022-12-25T02:02:08.145Z,4.85
2022-12-25T02:07:15.489Z,4.91
2022-12-25T02:12:25.493Z,4.93
2022-12-25T02:17:35.891Z,4.74
2022-12-25T02:22:51.873Z,4.37
2022-12-25T02:28:11.305Z,4.62
2022-12-25T02:33:38.257Z,4.83
2022-12-25T02:39:04.612Z,4.85
2022-12-25T02:44:33.997Z,4.63
2022-12-25T02:49:57.859Z,4.64
2022-12-25T02:55:24.851Z,4.72
2022-12-25T03:00:45.994Z,4.68
2022-12-25T03:06:20.109Z,4.78
2022-12-25T03:11:33.657Z,4.97
2022-12-25T03:16:54.150Z,4.83
2022-12-25T03:22:16.833Z,4.83
2022-12-25T03:27:20.879Z,4.70
2022-12-25T03:32:35.175Z,4.24
2022-12-25T03:38:12.055Z,4.39
2022-12-25T03:43:57.805Z,4.34
2022-12-25T03:49:28.720Z,4.06
2022-12-25T03:54:55.848Z,4.19
2022-12-25T04:00:17.388Z,4.28
2022-12-25T04:05:39.971Z,3.66
2022-12-25T04:11:01.050Z,3.86
2022-12-25T04:16:22.761Z,3.94
2022-12-25T04:21:45.478Z,3.93
2022-12-25T04:27:07.161Z,4.24
2022-12-25T04:32:30.105Z,4.19
2022-12-25T04:37:35.428Z,4.52
2022-12-25T04:42:39.445Z,4.26
2022-12-25T04:47:43.440Z,4.04
2022-12-25T04:52:48.900Z,3.82
2022-12-25T04:57:53.261Z,4.25
2022-12-25T05:02:58.982Z,4.15
2022-12-25T05:08:05.938Z,4.08
2022-12-25T05:13:09.963Z,4.17
2022-12-25T05:18:13.914Z,4.07
2022-12-25T05:23:19.597Z,4.25
2022-12-25T05:28:23.570Z,4.09
2022-12-25T05:33:27.609Z,4.05
2022-12-25T05:38:34.122Z,4.54
2022-12-25T05:43:38.083Z,4.55
2022-12-25T05:48:41.997Z,4.43
2022-12-25T05:53:47.384Z,4.13
2022-12-25T05:58:51.416Z,3.92
2022-12-25T06:03:55.776Z,4.05
2022-12-25T06:09:01.137Z,4.26
2022-12-25T06:14:05.160Z,4.27
2022-12-25T06:19:09.516Z,4.00
2022-12-25T06:24:21.246Z,3.83
2022-12-25T06:29:25.848Z,4.11
2022-12-25T06:34:29.832Z,4.24
2022-12-25T06:39:35.305Z,4.13
2022-12-25T06:44:39.681Z,3.98
2022-12-25T06:49:43.688Z,3.94
2022-12-25T06:54:49.297Z,4.27
2022-12-25T06:59:55.284Z,4.21
2022-12-25T07:05:01.296Z,4.49
2022-12-25T07:10:08.050Z,5.16
2022-12-25T07:15:12.328Z,6.65
2022-12-25T07:20:16.332Z,7.05
2022-12-25T07:25:21.975Z,8.13
2022-12-25T07:30:26.195Z,9.57
2022-12-25T07:35:30.190Z,9.79
2022-12-25T07:40:36.531Z,10.41
2022-12-25T07:45:40.621Z,11.27
2022-12-25T07:50:44.623Z,11.63
2022-12-25T07:55:49.958Z,11.73
2022-12-25T08:00:54.020Z,12.16
2022-12-25T08:06:01.293Z,13.03
2022-12-25T08:11:10.705Z,12.92
2022-12-25T08:16:14.448Z,13.07
2022-12-25T08:21:18.425Z,14.21
2022-12-25T08:26:24.962Z,14.53
2022-12-25T08:31:31.234Z,13.77
2022-12-25T08:36:35.385Z,13.82
2022-12-25T08:41:40.836Z,13.73
2022-12-25T08:46:45.022Z,14.24
2022-12-25T08:51:49.489Z,14.38
2022-12-25T08:57:02.105Z,14.91
2022-12-25T09:02:06.943Z,15.55
2022-12-25T09:07:12.378Z,15.54
2022-12-25T09:12:18.135Z,15.09
2022-12-25T09:17:28.309Z,14.99
2022-12-25T09:22:32.627Z,16.18
2022-12-25T09:27:38.065Z,16.45
2022-12-25T09:32:42.984Z,16.32
2022-12-25T09:37:47.165Z,15.78
2022-12-25T09:42:55.178Z,16.18
2022-12-25T09:47:59.184Z,14.69
2022-12-25T09:53:08.794Z,13.81
2022-12-25T09:58:15.146Z,14.26
2022-12-25T10:03:33.161Z,13.59
2022-12-25T10:08:50.955Z,13.51
2022-12-25T10:14:11.725Z,12.75
2022-12-25T10:19:29.865Z,12.82
2022-12-25T10:24:38.067Z,13.13
2022-12-25T10:29:45.593Z,13.76
2022-12-25T10:34:50.380Z,13.14
2022-12-25T10:39:54.947Z,13.38
2022-12-25T10:45:09.189Z,13.46
2022-12-25T10:50:19.687Z,14.03
2022-12-25T10:55:28.799Z,14.47
2022-12-25T11:00:35.079Z,14.43
2022-12-25T11:05:39.199Z,15.86
2022-12-25T11:10:46.526Z,16.26
2022-12-25T11:16:02.597Z,15.79
2022-12-25T11:21:18.600Z,15.41
2022-12-25T11:26:23.355Z,14.43
2022-12-25T11:31:38.949Z,13.64
2022-12-25T11:36:46.521Z,13.22
2022-12-25T11:41:56.248Z,12.70
2022-12-25T11:47:08.680Z,11.79
2022-12-25T11:52:15.423Z,11.71
2022-12-25T11:57:19.719Z,11.49
2022-12-25T12:02:33.877Z,12.25
2022-12-25T12:07:41.176Z,12.17
2022-12-25T12:12:54.460Z,12.48
2022-12-25T12:18:10.518Z,12.34
2022-12-25T12:23:17.765Z,13.38
2022-12-25T12:28:25.552Z,13.09
2022-12-25T12:33:40.168Z,12.30
2022-12-25T12:38:46.169Z,12.06
2022-12-25T12:43:58.290Z,12.33
2022-12-25T12:49:18.950Z,12.56
2022-12-25T12:54:24.870Z,12.73
2022-12-25T12:59:38.257Z,13.26
2022-12-25T13:05:03.839Z,13.85
2022-12-25T13:10:18.840Z,14.39
2022-12-25T13:15:26.152Z,15.09
2022-12-25T13:20:41.328Z,15.44
2022-12-25T13:25:53.887Z,15.36
2022-12-25T13:31:07.848Z,15.78
2022-12-25T13:36:16.027Z,15.42
2022-12-25T13:41:36.279Z,15.16
2022-12-25T13:46:40.379Z,14.20
2022-12-25T13:51:46.696Z,14.24
2022-12-25T13:56:52.898Z,13.80
2022-12-25T14:01:59.993Z,14.23
2022-12-25T14:07:12.248Z,13.76
2022-12-25T14:12:19.396Z,13.82
2022-12-25T14:17:24.345Z,13.65
2022-12-25T14:22:32.232Z,13.43
2022-12-25T14:27:36.236Z,13.15
2022-12-25T14:32:45.301Z,12.82
2022-12-25T14:37:56.816Z,12.42
2022-12-25T14:43:03.093Z,12.14
2022-12-25T14:48:24.418Z,11.57
2022-12-25T14:53:38.711Z,11.16
2022-12-25T14:58:45.111Z,11.01
2022-12-25T15:03:49.995Z,10.76
2022-12-25T15:09:00.430Z,10.90
2022-12-25T15:14:04.497Z,10.96
2022-12-25T15:19:10.538Z,10.41
2022-12-25T15:24:18.493Z,10.62
2022-12-25T15:29:44.704Z,9.85
2022-12-25T15:34:49.956Z,9.68
2022-12-25T15:39:57.392Z,9.83
2022-12-25T15:45:01.880Z,9.39
2022-12-25T15:50:07.407Z,9.34
2022-12-25T15:55:13.576Z,9.07
2022-12-25T16:00:22.657Z,9.18
2022-12-25T16:05:28.102Z,9.02
2022-12-25T16:10:38.620Z,8.80
2022-12-25T16:15:43.134Z,8.74
2022-12-25T16:20:47.568Z,8.42
2022-12-25T16:25:54.000Z,8.78
2022-12-25T16:31:01.124Z,8.30
2022-12-25T16:36:05.419Z,8.22
2022-12-25T16:41:12.532Z,8.12
2022-12-25T16:46:21.990Z,8.22
2022-12-25T16:51:26.128Z,7.98
2022-12-25T16:56:32.761Z,7.92
2022-12-25T17:01:38.238Z,7.75
2022-12-25T17:06:42.415Z,7.77
2022-12-25T17:11:47.839Z,7.62
2022-12-25T17:16:52.574Z,7.81
2022-12-25T17:21:57.565Z,7.58
2022-12-25T17:27:03.126Z,7.58
2022-12-25T17:32:09.573Z,7.65
2022-12-25T17:37:13.791Z,7.79
2022-12-25T17:42:19.149Z,7.68
2022-12-25T17:47:23.120Z,7.73
2022-12-25T17:52:27.431Z,7.74
2022-12-25T17:57:35.353Z,7.86
2022-12-25T18:02:40.178Z,8.11
2022-12-25T18:07:44.373Z,8.40
2022-12-25T18:12:50.183Z,8.24
2022-12-25T18:17:54.348Z,7.52
2022-12-25T18:22:59.861Z,7.94
2022-12-25T18:28:05.773Z,7.90
2022-12-25T18:33:10.255Z,7.73
2022-12-25T18:38:15.895Z,7.96
2022-12-25T18:43:21.655Z,8.09
2022-12-25T18:48:46.123Z,7.65
2022-12-25T18:53:51.673Z,8.02
2022-12-25T18:59:00.731Z,8.11
2022-12-25T19:04:06.306Z,8.02
2022-12-25T19:09:10.941Z,8.04
2022-12-25T19:14:18.630Z,8.04
2022-12-25T19:19:24.349Z,8.08
2022-12-25T19:24:34.494Z,8.17
2022-12-25T19:29:40.147Z,8.15
2022-12-25T19:34:44.150Z,7.76
2022-12-25T19:39:48.546Z,7.75
2022-12-25T19:44:54.031Z,8.28
2022-12-25T19:50:02.609Z,7.83
2022-12-25T19:55:08.309Z,7.47
2022-12-25T20:00:14.840Z,7.73
2022-12-25T20:05:19.021Z,7.29
2022-12-25T20:10:23.223Z,7.06
2022-12-25T20:15:29.106Z,7.10
2022-12-25T20:20:33.491Z,7.24
2022-12-25T20:25:40.815Z,6.86
2022-12-25T20:30:46.561Z,6.88
2022-12-25T20:35:52.201Z,6.57
2022-12-25T20:41:26.408Z,6.45
2022-12-25T20:46:27.147Z,6.59
2022-12-25T20:51:33.098Z,6.65
2022-12-25T20:56:38.109Z,6.25
2022-12-25T21:01:44.137Z,6.24
2022-12-25T21:06:49.247Z,6.12
2022-12-25T21:11:53.788Z,5.87
2022-12-25T21:17:00.889Z,5.78
2022-12-25T21:22:05.319Z,6.09
2022-12-25T21:27:09.963Z,5.79
2022-12-25T21:32:32.254Z,5.72
2022-12-25T21:37:36.407Z,5.62
2022-12-25T21:42:40.492Z,5.45
2022-12-25T21:48:01.635Z,5.07
2022-12-25T21:53:08.527Z,5.07
2022-12-25T21:58:12.728Z,4.93
2022-12-25T22:03:20.755Z,5.32
2022-12-25T22:08:25.048Z,5.19
2022-12-25T22:13:45.976Z,4.70
2022-12-25T22:19:10.373Z,4.90
2022-12-25T22:24:14.862Z,5.05
2022-12-25T22:29:19.027Z,4.53
2022-12-25T22:34:24.566Z,4.42
2022-12-25T22:39:28.969Z,4.54
2022-12-25T22:44:34.365Z,4.51
2022-12-25T22:49:40.074Z,4.12
2022-12-25T22:54:44.867Z,4.16
2022-12-25T22:59:52.017Z,3.85
2022-12-25T23:04:58.272Z,3.83
2022-12-25T23:10:02.694Z,3.66
2022-12-25T23:15:07.907Z,3.46
2022-12-25T23:20:33.894Z,3.39
2022-12-25T23:25:55.618Z,3.46
2022-12-25T23:30:59.850Z,3.38
2022-12-25T23:36:06.669Z,3.30
2022-12-25T23:41:11.301Z,3.28
2022-12-25T23:46:16.355Z,3.21
2022-12-25T23:51:22.107Z,3.19
2022-12-25T23:56:28.736Z,3.16
